sensor_id;sensor_type;location;lat;lon;timestamp;P1;durP1;ratioP1;P2;durP2;ratioP2
18610;SDS011;9435;52.122;5.502;2023-02-28T00:01:05;10.27;;;3.60;;
18610;SDS011;9435;52.122;5.502;2023-02-28T00:03:33;10.65;;;3.28;;
18610;SDS011;9435;52.122;5.502;2023-02-28T00:06:00;8.05;;;3.60;;
18610;SDS011;9435;52.122;5.502;2023-02-28T00:08:29;7.65;;;3.40;;
18610;SDS011;9435;52.122;5.502;2023-02-28T00:11:00;9.35;;;3.50;;
18610;SDS011;9435;52.122;5.502;2023-02-28T00:13:27;8.25;;;3.25;;
18610;SDS011;9435;52.122;5.502;2023-02-28T00:16:01;9.10;;;3.40;;
18610;SDS011;9435;52.122;5.502;2023-02-28T00:18:30;8.52;;;3.35;;
18610;SDS011;9435;52.122;5.502;2023-02-28T00:20:57;11.15;;;3.72;;
18610;SDS011;9435;52.122;5.502;2023-02-28T00:23:25;8.40;;;3.40;;
18610;SDS011;9435;52.122;5.502;2023-02-28T00:25:53;8.15;;;3.45;;
18610;SDS011;9435;52.122;5.502;2023-02-28T00:28:21;7.60;;;3.33;;
18610;SDS011;9435;52.122;5.502;2023-02-28T00:30:48;8.35;;;3.20;;
18610;SDS011;9435;52.122;5.502;2023-02-28T00:33:15;7.65;;;3.22;;
18610;SDS011;9435;52.122;5.502;2023-02-28T00:35:43;7.57;;;3.10;;
18610;SDS011;9435;52.122;5.502;2023-02-28T00:38:11;7.78;;;3.50;;
18610;SDS011;9435;52.122;5.502;2023-02-28T00:40:38;8.27;;;3.50;;
18610;SDS011;9435;52.122;5.502;2023-02-28T00:43:07;8.25;;;3.10;;
18610;SDS011;9435;52.122;5.502;2023-02-28T00:45:34;7.30;;;3.25;;
18610;SDS011;9435;52.122;5.502;2023-02-28T00:48:01;10.55;;;3.40;;
18610;SDS011;9435;52.122;5.502;2023-02-28T00:50:29;9.50;;;3.20;;
18610;SDS011;9435;52.122;5.502;2023-02-28T00:52:56;7.22;;;3.13;;
18610;SDS011;9435;52.122;5.502;2023-02-28T00:55:23;10.95;;;3.60;;
18610;SDS011;9435;52.122;5.502;2023-02-28T00:57:50;12.13;;;3.20;;
18610;SDS011;9435;52.122;5.502;2023-02-28T01:00:19;6.30;;;2.90;;
18610;SDS011;9435;52.122;5.502;2023-02-28T01:02:46;8.02;;;3.15;;
18610;SDS011;9435;52.122;5.502;2023-02-28T01:05:13;6.93;;;3.00;;
18610;SDS011;9435;52.122;5.502;2023-02-28T01:07:40;10.93;;;3.42;;
18610;SDS011;9435;52.122;5.502;2023-02-28T01:10:08;7.95;;;3.22;;
18610;SDS011;9435;52.122;5.502;2023-02-28T01:12:35;7.90;;;3.33;;
18610;SDS011;9435;52.122;5.502;2023-02-28T01:15:03;9.18;;;3.30;;
18610;SDS011;9435;52.122;5.502;2023-02-28T01:17:32;6.50;;;3.40;;
18610;SDS011;9435;52.122;5.502;2023-02-28T01:19:59;6.40;;;3.53;;
18610;SDS011;9435;52.122;5.502;2023-02-28T01:22:26;9.25;;;3.90;;
18610;SDS011;9435;52.122;5.502;2023-02-28T01:24:53;7.10;;;3.25;;
18610;SDS011;9435;52.122;5.502;2023-02-28T01:27:20;7.88;;;3.47;;
18610;SDS011;9435;52.122;5.502;2023-02-28T01:29:47;8.48;;;3.55;;
18610;SDS011;9435;52.122;5.502;2023-02-28T01:32:14;10.05;;;3.67;;
18610;SDS011;9435;52.122;5.502;2023-02-28T01:34:43;7.10;;;3.35;;
18610;SDS011;9435;52.122;5.502;2023-02-28T01:37:10;12.45;;;3.50;;
18610;SDS011;9435;52.122;5.502;2023-02-28T01:39:37;6.93;;;3.50;;
18610;SDS011;9435;52.122;5.502;2023-02-28T01:42:04;8.63;;;3.53;;
18610;SDS011;9435;52.122;5.502;2023-02-28T01:47:23;7.15;;;3.25;;
18610;SDS011;9435;52.122;5.502;2023-02-28T01:49:54;7.22;;;3.20;;
18610;SDS011;9435;52.122;5.502;2023-02-28T01:52:22;10.48;;;3.60;;
18610;SDS011;9435;52.122;5.502;2023-02-28T01:54:50;7.97;;;3.38;;
18610;SDS011;9435;52.122;5.502;2023-02-28T01:57:21;7.53;;;3.30;;
18610;SDS011;9435;52.122;5.502;2023-02-28T01:59:52;6.55;;;3.33;;
18610;SDS011;9435;52.122;5.502;2023-02-28T02:02:24;8.23;;;3.30;;
18610;SDS011;9435;52.122;5.502;2023-02-28T02:04:55;9.45;;;3.67;;
18610;SDS011;9435;52.122;5.502;2023-02-28T02:07:26;9.68;;;3.35;;
18610;SDS011;9435;52.122;5.502;2023-02-28T02:10:01;7.78;;;3.42;;
18610;SDS011;9435;52.122;5.502;2023-02-28T02:12:32;8.43;;;3.40;;
18610;SDS011;9435;52.122;5.502;2023-02-28T02:15:09;8.75;;;3.38;;
18610;SDS011;9435;52.122;5.502;2023-02-28T02:17:43;6.47;;;3.20;;
18610;SDS011;9435;52.122;5.502;2023-02-28T02:26:37;7.35;;;3.70;;
18610;SDS011;9435;52.122;5.502;2023-02-28T02:32:18;10.77;;;3.72;;
18610;SDS011;9435;52.122;5.502;2023-02-28T02:35:02;10.07;;;3.58;;
18610;SDS011;9435;52.122;5.502;2023-02-28T02:37:39;6.95;;;3.65;;
18610;SDS011;9435;52.122;5.502;2023-02-28T02:40:11;6.93;;;3.38;;
18610;SDS011;9435;52.122;5.502;2023-02-28T02:42:42;7.75;;;3.50;;
18610;SDS011;9435;52.122;5.502;2023-02-28T02:45:15;10.90;;;4.25;;
18610;SDS011;9435;52.122;5.502;2023-02-28T02:47:48;11.15;;;4.40;;
18610;SDS011;9435;52.122;5.502;2023-02-28T02:50:19;9.50;;;3.72;;
18610;SDS011;9435;52.122;5.502;2023-02-28T02:52:53;8.93;;;3.95;;
18610;SDS011;9435;52.122;5.502;2023-02-28T02:55:23;10.15;;;4.22;;
18610;SDS011;9435;52.122;5.502;2023-02-28T02:57:52;8.18;;;3.95;;
18610;SDS011;9435;52.122;5.502;2023-02-28T03:00:23;8.90;;;3.80;;
18610;SDS011;9435;52.122;5.502;2023-02-28T03:02:56;7.43;;;3.80;;
18610;SDS011;9435;52.122;5.502;2023-02-28T03:05:26;7.45;;;3.88;;
18610;SDS011;9435;52.122;5.502;2023-02-28T03:07:54;7.97;;;3.80;;
18610;SDS011;9435;52.122;5.502;2023-02-28T03:10:29;10.68;;;4.00;;
18610;SDS011;9435;52.122;5.502;2023-02-28T03:13:20;10.38;;;4.22;;
18610;SDS011;9435;52.122;5.502;2023-02-28T03:16:10;9.10;;;4.22;;
18610;SDS011;9435;52.122;5.502;2023-02-28T03:18:52;9.70;;;4.00;;
18610;SDS011;9435;52.122;5.502;2023-02-28T03:21:30;8.32;;;3.53;;
18610;SDS011;9435;52.122;5.502;2023-02-28T03:24:05;10.90;;;4.00;;
18610;SDS011;9435;52.122;5.502;2023-02-28T03:26:38;10.27;;;3.90;;
18610;SDS011;9435;52.122;5.502;2023-02-28T03:29:11;6.97;;;3.97;;
18610;SDS011;9435;52.122;5.502;2023-02-28T03:31:44;10.82;;;4.35;;
18610;SDS011;9435;52.122;5.502;2023-02-28T03:34:16;10.32;;;4.20;;
18610;SDS011;9435;52.122;5.502;2023-02-28T03:36:49;11.52;;;4.15;;
18610;SDS011;9435;52.122;5.502;2023-02-28T03:39:20;7.70;;;3.83;;
18610;SDS011;9435;52.122;5.502;2023-02-28T03:41:51;7.68;;;3.80;;
18610;SDS011;9435;52.122;5.502;2023-02-28T03:44:24;9.20;;;3.88;;
18610;SDS011;9435;52.122;5.502;2023-02-28T03:46:56;8.82;;;4.25;;
18610;SDS011;9435;52.122;5.502;2023-02-28T03:49:27;10.00;;;4.55;;
18610;SDS011;9435;52.122;5.502;2023-02-28T03:51:59;10.90;;;4.50;;
18610;SDS011;9435;52.122;5.502;2023-02-28T03:54:30;10.32;;;4.40;;
18610;SDS011;9435;52.122;5.502;2023-02-28T03:57:00;8.73;;;4.40;;
18610;SDS011;9435;52.122;5.502;2023-02-28T03:59:34;9.27;;;4.40;;
18610;SDS011;9435;52.122;5.502;2023-02-28T04:02:03;12.23;;;4.80;;
18610;SDS011;9435;52.122;5.502;2023-02-28T04:04:31;9.05;;;4.53;;
18610;SDS011;9435;52.122;5.502;2023-02-28T04:07:04;11.05;;;4.40;;
18610;SDS011;9435;52.122;5.502;2023-02-28T04:09:33;11.23;;;4.35;;
18610;SDS011;9435;52.122;5.502;2023-02-28T04:12:01;9.07;;;4.20;;
18610;SDS011;9435;52.122;5.502;2023-02-28T04:14:28;6.93;;;4.00;;
18610;SDS011;9435;52.122;5.502;2023-02-28T04:16:55;7.50;;;3.50;;
18610;SDS011;9435;52.122;5.502;2023-02-28T04:19:22;6.43;;;3.70;;
18610;SDS011;9435;52.122;5.502;2023-02-28T04:21:50;7.95;;;3.95;;
18610;SDS011;9435;52.122;5.502;2023-02-28T04:24:20;6.60;;;3.80;;
18610;SDS011;9435;52.122;5.502;2023-02-28T04:26:49;9.98;;;3.72;;
18610;SDS011;9435;52.122;5.502;2023-02-28T04:29:18;9.13;;;3.97;;
18610;SDS011;9435;52.122;5.502;2023-02-28T04:31:47;7.75;;;3.83;;
18610;SDS011;9435;52.122;5.502;2023-02-28T04:34:14;7.47;;;4.00;;
18610;SDS011;9435;52.122;5.502;2023-02-28T04:36:41;9.55;;;3.92;;
18610;SDS011;9435;52.122;5.502;2023-02-28T04:39:08;9.07;;;3.80;;
18610;SDS011;9435;52.122;5.502;2023-02-28T04:41:37;7.57;;;3.78;;
18610;SDS011;9435;52.122;5.502;2023-02-28T04:44:04;8.25;;;3.80;;
18610;SDS011;9435;52.122;5.502;2023-02-28T04:46:31;7.82;;;3.65;;
18610;SDS011;9435;52.122;5.502;2023-02-28T04:48:58;9.63;;;3.53;;
18610;SDS011;9435;52.122;5.502;2023-02-28T04:51:25;7.93;;;3.15;;
18610;SDS011;9435;52.122;5.502;2023-02-28T04:53:52;6.55;;;3.30;;
18610;SDS011;9435;52.122;5.502;2023-02-28T04:56:20;6.72;;;3.30;;
18610;SDS011;9435;52.122;5.502;2023-02-28T04:58:49;7.97;;;3.20;;
18610;SDS011;9435;52.122;5.502;2023-02-28T05:01:19;6.57;;;3.05;;
18610;SDS011;9435;52.122;5.502;2023-02-28T05:03:49;7.80;;;2.97;;
18610;SDS011;9435;52.122;5.502;2023-02-28T05:06:16;5.57;;;2.90;;
18610;SDS011;9435;52.122;5.502;2023-02-28T05:08:45;6.15;;;2.85;;
18610;SDS011;9435;52.122;5.502;2023-02-28T05:11:14;7.93;;;3.00;;
18610;SDS011;9435;52.122;5.502;2023-02-28T05:13:42;6.32;;;3.28;;
18610;SDS011;9435;52.122;5.502;2023-02-28T05:16:11;7.13;;;3.25;;
18610;SDS011;9435;52.122;5.502;2023-02-28T05:18:38;6.78;;;2.90;;
18610;SDS011;9435;52.122;5.502;2023-02-28T05:21:05;6.47;;;3.20;;
18610;SDS011;9435;52.122;5.502;2023-02-28T05:23:48;5.85;;;3.13;;
18610;SDS011;9435;52.122;5.502;2023-02-28T05:26:15;7.43;;;3.47;;
18610;SDS011;9435;52.122;5.502;2023-02-28T05:28:42;7.70;;;3.30;;
18610;SDS011;9435;52.122;5.502;2023-02-28T05:31:10;5.50;;;3.35;;
18610;SDS011;9435;52.122;5.502;2023-02-28T05:33:38;6.55;;;3.42;;
18610;SDS011;9435;52.122;5.502;2023-02-28T05:36:06;4.78;;;2.95;;
18610;SDS011;9435;52.122;5.502;2023-02-28T05:38:33;6.43;;;3.20;;
18610;SDS011;9435;52.122;5.502;2023-02-28T05:41:04;6.55;;;3.50;;
18610;SDS011;9435;52.122;5.502;2023-02-28T05:43:32;5.93;;;3.00;;
18610;SDS011;9435;52.122;5.502;2023-02-28T05:45:59;8.18;;;3.28;;
18610;SDS011;9435;52.122;5.502;2023-02-28T05:48:30;9.20;;;3.38;;
18610;SDS011;9435;52.122;5.502;2023-02-28T05:50:57;5.85;;;3.63;;
18610;SDS011;9435;52.122;5.502;2023-02-28T05:53:25;5.47;;;3.25;;
18610;SDS011;9435;52.122;5.502;2023-02-28T05:55:52;7.30;;;3.50;;
18610;SDS011;9435;52.122;5.502;2023-02-28T05:58:20;10.88;;;3.88;;
18610;SDS011;9435;52.122;5.502;2023-02-28T06:00:47;6.40;;;3.55;;
18610;SDS011;9435;52.122;5.502;2023-02-28T06:03:15;6.18;;;3.50;;
18610;SDS011;9435;52.122;5.502;2023-02-28T06:05:43;5.95;;;3.50;;
18610;SDS011;9435;52.122;5.502;2023-02-28T06:08:10;6.05;;;3.75;;
18610;SDS011;9435;52.122;5.502;2023-02-28T06:10:38;7.70;;;3.65;;
18610;SDS011;9435;52.122;5.502;2023-02-28T06:13:05;8.05;;;4.30;;
18610;SDS011;9435;52.122;5.502;2023-02-28T06:15:32;11.88;;;4.68;;
18610;SDS011;9435;52.122;5.502;2023-02-28T06:18:00;9.65;;;4.50;;
18610;SDS011;9435;52.122;5.502;2023-02-28T06:20:27;8.82;;;4.15;;
18610;SDS011;9435;52.122;5.502;2023-02-28T06:22:56;9.27;;;4.53;;
18610;SDS011;9435;52.122;5.502;2023-02-28T06:25:24;7.65;;;4.03;;
18610;SDS011;9435;52.122;5.502;2023-02-28T06:27:52;8.88;;;4.30;;
18610;SDS011;9435;52.122;5.502;2023-02-28T06:30:20;9.18;;;4.75;;
18610;SDS011;9435;52.122;5.502;2023-02-28T06:32:50;9.38;;;4.68;;
18610;SDS011;9435;52.122;5.502;2023-02-28T06:35:18;7.25;;;4.50;;
18610;SDS011;9435;52.122;5.502;2023-02-28T06:37:45;9.40;;;4.50;;
18610;SDS011;9435;52.122;5.502;2023-02-28T06:40:14;10.60;;;4.68;;
18610;SDS011;9435;52.122;5.502;2023-02-28T06:42:42;8.63;;;4.60;;
18610;SDS011;9435;52.122;5.502;2023-02-28T06:45:09;9.57;;;4.53;;
18610;SDS011;9435;52.122;5.502;2023-02-28T06:47:37;7.50;;;4.50;;
18610;SDS011;9435;52.122;5.502;2023-02-28T06:50:06;9.43;;;5.00;;
18610;SDS011;9435;52.122;5.502;2023-02-28T06:52:35;9.45;;;4.72;;
18610;SDS011;9435;52.122;5.502;2023-02-28T06:55:02;9.93;;;5.10;;
18610;SDS011;9435;52.122;5.502;2023-02-28T06:57:32;10.85;;;5.22;;
18610;SDS011;9435;52.122;5.502;2023-02-28T07:00:02;11.27;;;5.10;;
18610;SDS011;9435;52.122;5.502;2023-02-28T07:02:32;7.57;;;4.85;;
18610;SDS011;9435;52.122;5.502;2023-02-28T07:04:59;8.73;;;5.07;;
18610;SDS011;9435;52.122;5.502;2023-02-28T07:07:28;10.45;;;5.72;;
18610;SDS011;9435;52.122;5.502;2023-02-28T07:09:55;10.68;;;5.57;;
18610;SDS011;9435;52.122;5.502;2023-02-28T07:12:22;10.63;;;5.47;;
18610;SDS011;9435;52.122;5.502;2023-02-28T07:14:50;9.90;;;5.93;;
18610;SDS011;9435;52.122;5.502;2023-02-28T07:17:19;10.50;;;5.70;;
18610;SDS011;9435;52.122;5.502;2023-02-28T07:19:46;14.05;;;6.47;;
18610;SDS011;9435;52.122;5.502;2023-02-28T07:22:13;13.02;;;6.28;;
18610;SDS011;9435;52.122;5.502;2023-02-28T07:24:40;14.52;;;7.22;;
18610;SDS011;9435;52.122;5.502;2023-02-28T07:27:07;14.27;;;7.00;;
18610;SDS011;9435;52.122;5.502;2023-02-28T07:29:34;12.20;;;6.15;;
18610;SDS011;9435;52.122;5.502;2023-02-28T07:32:04;13.82;;;6.50;;
18610;SDS011;9435;52.122;5.502;2023-02-28T07:34:31;10.98;;;6.65;;
18610;SDS011;9435;52.122;5.502;2023-02-28T07:36:58;13.70;;;6.53;;
18610;SDS011;9435;52.122;5.502;2023-02-28T07:39:28;16.63;;;6.45;;
18610;SDS011;9435;52.122;5.502;2023-02-28T07:41:55;10.27;;;6.22;;
18610;SDS011;9435;52.122;5.502;2023-02-28T07:44:22;13.43;;;6.65;;
18610;SDS011;9435;52.122;5.502;2023-02-28T07:46:49;14.13;;;6.15;;
18610;SDS011;9435;52.122;5.502;2023-02-28T07:49:20;13.05;;;6.55;;
18610;SDS011;9435;52.122;5.502;2023-02-28T07:51:48;13.80;;;6.65;;
18610;SDS011;9435;52.122;5.502;2023-02-28T07:54:15;13.25;;;6.38;;
18610;SDS011;9435;52.122;5.502;2023-02-28T07:56:42;13.20;;;6.93;;
18610;SDS011;9435;52.122;5.502;2023-02-28T07:59:09;14.75;;;6.60;;
18610;SDS011;9435;52.122;5.502;2023-02-28T08:01:36;15.00;;;6.70;;
18610;SDS011;9435;52.122;5.502;2023-02-28T08:04:03;15.25;;;6.63;;
18610;SDS011;9435;52.122;5.502;2023-02-28T08:06:32;12.82;;;6.45;;
18610;SDS011;9435;52.122;5.502;2023-02-28T08:08:59;10.55;;;5.80;;
18610;SDS011;9435;52.122;5.502;2023-02-28T08:11:26;10.10;;;6.05;;
18610;SDS011;9435;52.122;5.502;2023-02-28T08:13:54;11.63;;;6.00;;
18610;SDS011;9435;52.122;5.502;2023-02-28T08:16:21;13.32;;;6.03;;
18610;SDS011;9435;52.122;5.502;2023-02-28T08:18:48;11.70;;;5.75;;
18610;SDS011;9435;52.122;5.502;2023-02-28T08:21:16;11.35;;;5.32;;
18610;SDS011;9435;52.122;5.502;2023-02-28T08:23:45;9.60;;;4.70;;
18610;SDS011;9435;52.122;5.502;2023-02-28T08:26:13;9.43;;;4.55;;
18610;SDS011;9435;52.122;5.502;2023-02-28T08:28:40;8.45;;;4.10;;
18610;SDS011;9435;52.122;5.502;2023-02-28T08:31:08;10.90;;;4.30;;
18610;SDS011;9435;52.122;5.502;2023-02-28T08:33:36;7.78;;;3.60;;
18610;SDS011;9435;52.122;5.502;2023-02-28T08:36:04;10.98;;;3.50;;
18610;SDS011;9435;52.122;5.502;2023-02-28T08:38:32;8.65;;;3.60;;
18610;SDS011;9435;52.122;5.502;2023-02-28T08:41:01;6.45;;;3.20;;
18610;SDS011;9435;52.122;5.502;2023-02-28T08:43:31;9.73;;;3.40;;
18610;SDS011;9435;52.122;5.502;2023-02-28T08:45:58;6.30;;;3.20;;
18610;SDS011;9435;52.122;5.502;2023-02-28T08:48:26;7.07;;;3.15;;
18610;SDS011;9435;52.122;5.502;2023-02-28T08:50:54;5.15;;;2.90;;
18610;SDS011;9435;52.122;5.502;2023-02-28T08:53:22;6.28;;;2.80;;
18610;SDS011;9435;52.122;5.502;2023-02-28T08:55:55;4.25;;;2.60;;
18610;SDS011;9435;52.122;5.502;2023-02-28T08:58:24;5.38;;;2.45;;
18610;SDS011;9435;52.122;5.502;2023-02-28T09:00:52;3.25;;;1.92;;
18610;SDS011;9435;52.122;5.502;2023-02-28T09:03:20;5.57;;;1.90;;
18610;SDS011;9435;52.122;5.502;2023-02-28T09:05:54;4.35;;;1.70;;
18610;SDS011;9435;52.122;5.502;2023-02-28T09:08:22;3.47;;;1.60;;
18610;SDS011;9435;52.122;5.502;2023-02-28T09:10:50;4.38;;;1.70;;
18610;SDS011;9435;52.122;5.502;2023-02-28T09:13:19;4.55;;;1.40;;
18610;SDS011;9435;52.122;5.502;2023-02-28T09:15:48;3.85;;;1.90;;
18610;SDS011;9435;52.122;5.502;2023-02-28T09:18:15;3.42;;;1.58;;
18610;SDS011;9435;52.122;5.502;2023-02-28T09:20:43;3.25;;;1.50;;
18610;SDS011;9435;52.122;5.502;2023-02-28T09:23:12;2.45;;;1.38;;
18610;SDS011;9435;52.122;5.502;2023-02-28T09:25:46;4.38;;;1.60;;
18610;SDS011;9435;52.122;5.502;2023-02-28T09:28:16;2.78;;;1.50;;
18610;SDS011;9435;52.122;5.502;2023-02-28T09:30:44;2.63;;;1.55;;
18610;SDS011;9435;52.122;5.502;2023-02-28T09:33:14;5.07;;;1.65;;
18610;SDS011;9435;52.122;5.502;2023-02-28T09:35:42;2.85;;;1.60;;
18610;SDS011;9435;52.122;5.502;2023-02-28T09:38:09;2.10;;;1.30;;
18610;SDS011;9435;52.122;5.502;2023-02-28T09:40:45;3.90;;;1.67;;
18610;SDS011;9435;52.122;5.502;2023-02-28T09:43:19;2.50;;;1.50;;
18610;SDS011;9435;52.122;5.502;2023-02-28T09:45:49;4.05;;;1.63;;
18610;SDS011;9435;52.122;5.502;2023-02-28T09:48:29;3.38;;;1.65;;
18610;SDS011;9435;52.122;5.502;2023-02-28T09:51:05;2.53;;;1.50;;
18610;SDS011;9435;52.122;5.502;2023-02-28T09:53:46;3.08;;;1.60;;
18610;SDS011;9435;52.122;5.502;2023-02-28T09:56:24;2.78;;;1.65;;
18610;SDS011;9435;52.122;5.502;2023-02-28T09:58:58;2.47;;;1.40;;
18610;SDS011;9435;52.122;5.502;2023-02-28T10:01:31;3.88;;;1.60;;
18610;SDS011;9435;52.122;5.502;2023-02-28T10:04:08;3.95;;;1.92;;
18610;SDS011;9435;52.122;5.502;2023-02-28T10:07:01;2.33;;;1.40;;
18610;SDS011;9435;52.122;5.502;2023-02-28T10:09:32;2.97;;;1.60;;
18610;SDS011;9435;52.122;5.502;2023-02-28T10:12:03;2.58;;;1.40;;
18610;SDS011;9435;52.122;5.502;2023-02-28T10:14:32;2.08;;;1.50;;
18610;SDS011;9435;52.122;5.502;2023-02-28T10:17:02;2.95;;;1.65;;
18610;SDS011;9435;52.122;5.502;2023-02-28T10:19:38;2.72;;;1.58;;
18610;SDS011;9435;52.122;5.502;2023-02-28T10:22:10;3.75;;;1.45;;
18610;SDS011;9435;52.122;5.502;2023-02-28T10:24:41;2.78;;;1.52;;
18610;SDS011;9435;52.122;5.502;2023-02-28T10:27:13;3.15;;;1.80;;
18610;SDS011;9435;52.122;5.502;2023-02-28T10:29:44;5.60;;;1.80;;
18610;SDS011;9435;52.122;5.502;2023-02-28T10:32:14;2.58;;;1.60;;
18610;SDS011;9435;52.122;5.502;2023-02-28T10:34:45;3.35;;;1.30;;
18610;SDS011;9435;52.122;5.502;2023-02-28T10:37:17;3.50;;;1.90;;
18610;SDS011;9435;52.122;5.502;2023-02-28T10:39:46;2.80;;;1.40;;
18610;SDS011;9435;52.122;5.502;2023-02-28T10:42:20;3.88;;;1.60;;
18610;SDS011;9435;52.122;5.502;2023-02-28T10:45:01;2.88;;;1.63;;
18610;SDS011;9435;52.122;5.502;2023-02-28T10:47:48;4.00;;;1.60;;
18610;SDS011;9435;52.122;5.502;2023-02-28T10:50:32;2.85;;;1.70;;
18610;SDS011;9435;52.122;5.502;2023-02-28T10:55:57;4.22;;;1.60;;
18610;SDS011;9435;52.122;5.502;2023-02-28T10:58:27;2.72;;;1.55;;
18610;SDS011;9435;52.122;5.502;2023-02-28T11:00:56;2.92;;;1.50;;
18610;SDS011;9435;52.122;5.502;2023-02-28T11:03:28;3.05;;;1.48;;
18610;SDS011;9435;52.122;5.502;2023-02-28T11:06:03;3.00;;;1.55;;
18610;SDS011;9435;52.122;5.502;2023-02-28T11:08:33;2.63;;;1.55;;
18610;SDS011;9435;52.122;5.502;2023-02-28T11:11:01;4.00;;;1.55;;
18610;SDS011;9435;52.122;5.502;2023-02-28T11:13:32;3.17;;;1.50;;
18610;SDS011;9435;52.122;5.502;2023-02-28T11:16:03;3.55;;;1.38;;
18610;SDS011;9435;52.122;5.502;2023-02-28T11:18:35;2.75;;;1.58;;
18610;SDS011;9435;52.122;5.502;2023-02-28T11:21:09;3.22;;;1.70;;
18610;SDS011;9435;52.122;5.502;2023-02-28T11:23:43;3.85;;;1.60;;
18610;SDS011;9435;52.122;5.502;2023-02-28T11:26:10;2.33;;;1.50;;
18610;SDS011;9435;52.122;5.502;2023-02-28T11:28:38;2.50;;;1.50;;
18610;SDS011;9435;52.122;5.502;2023-02-28T11:31:17;3.50;;;1.42;;
18610;SDS011;9435;52.122;5.502;2023-02-28T11:33:47;4.03;;;1.50;;
18610;SDS011;9435;52.122;5.502;2023-02-28T11:36:18;2.90;;;1.60;;
18610;SDS011;9435;52.122;5.502;2023-02-28T11:38:49;3.75;;;1.40;;
18610;SDS011;9435;52.122;5.502;2023-02-28T11:41:26;9.93;;;5.22;;
18610;SDS011;9435;52.122;5.502;2023-02-28T11:47:04;2.63;;;1.52;;
18610;SDS011;9435;52.122;5.502;2023-02-28T11:49:40;2.63;;;1.50;;
18610;SDS011;9435;52.122;5.502;2023-02-28T11:52:17;3.25;;;1.70;;
18610;SDS011;9435;52.122;5.502;2023-02-28T11:54:51;3.65;;;1.77;;
18610;SDS011;9435;52.122;5.502;2023-02-28T11:57:32;5.93;;;1.70;;
18610;SDS011;9435;52.122;5.502;2023-02-28T12:00:09;5.30;;;1.77;;
18610;SDS011;9435;52.122;5.502;2023-02-28T12:02:53;4.53;;;1.50;;
18610;SDS011;9435;52.122;5.502;2023-02-28T12:05:29;5.32;;;1.90;;
18610;SDS011;9435;52.122;5.502;2023-02-28T12:08:06;3.90;;;1.83;;
18610;SDS011;9435;52.122;5.502;2023-02-28T12:10:44;3.55;;;1.60;;
18610;SDS011;9435;52.122;5.502;2023-02-28T12:13:29;3.58;;;1.40;;
18610;SDS011;9435;52.122;5.502;2023-02-28T12:16:17;2.35;;;1.50;;
18610;SDS011;9435;52.122;5.502;2023-02-28T12:19:06;2.95;;;1.60;;
18610;SDS011;9435;52.122;5.502;2023-02-28T12:21:45;3.17;;;1.70;;
18610;SDS011;9435;52.122;5.502;2023-02-28T12:24:44;3.33;;;1.60;;
18610;SDS011;9435;52.122;5.502;2023-02-28T12:27:28;3.50;;;1.50;;
18610;SDS011;9435;52.122;5.502;2023-02-28T12:30:00;2.75;;;1.52;;
18610;SDS011;9435;52.122;5.502;2023-02-28T12:32:32;3.35;;;1.88;;
18610;SDS011;9435;52.122;5.502;2023-02-28T12:35:04;3.28;;;1.50;;
18610;SDS011;9435;52.122;5.502;2023-02-28T12:37:40;3.50;;;1.90;;
18610;SDS011;9435;52.122;5.502;2023-02-28T12:40:15;2.83;;;1.63;;
18610;SDS011;9435;52.122;5.502;2023-02-28T12:42:45;4.00;;;1.90;;
18610;SDS011;9435;52.122;5.502;2023-02-28T12:45:18;3.72;;;1.90;;
18610;SDS011;9435;52.122;5.502;2023-02-28T12:47:50;4.07;;;1.80;;
18610;SDS011;9435;52.122;5.502;2023-02-28T12:50:23;4.40;;;1.80;;
18610;SDS011;9435;52.122;5.502;2023-02-28T12:52:59;4.93;;;2.17;;
18610;SDS011;9435;52.122;5.502;2023-02-28T12:55:32;2.47;;;1.73;;
18610;SDS011;9435;52.122;5.502;2023-02-28T12:58:09;3.38;;;1.75;;
18610;SDS011;9435;52.122;5.502;2023-02-28T13:00:43;3.33;;;2.15;;
18610;SDS011;9435;52.122;5.502;2023-02-28T13:03:27;5.03;;;2.28;;
18610;SDS011;9435;52.122;5.502;2023-02-28T13:06:14;4.63;;;1.92;;
18610;SDS011;9435;52.122;5.502;2023-02-28T13:11:44;2.60;;;1.80;;
18610;SDS011;9435;52.122;5.502;2023-02-28T13:14:18;4.05;;;2.00;;
18610;SDS011;9435;52.122;5.502;2023-02-28T13:16:50;3.20;;;1.73;;
18610;SDS011;9435;52.122;5.502;2023-02-28T13:19:23;2.88;;;1.90;;
18610;SDS011;9435;52.122;5.502;2023-02-28T13:21:53;3.42;;;2.00;;
18610;SDS011;9435;52.122;5.502;2023-02-28T13:33:27;3.65;;;2.00;;
18610;SDS011;9435;52.122;5.502;2023-02-28T13:36:08;4.28;;;2.13;;
18610;SDS011;9435;52.122;5.502;2023-02-28T13:38:48;5.82;;;2.00;;
18610;SDS011;9435;52.122;5.502;2023-02-28T13:44:16;4.10;;;2.20;;
18610;SDS011;9435;52.122;5.502;2023-02-28T13:49:49;4.85;;;1.90;;
18610;SDS011;9435;52.122;5.502;2023-02-28T13:52:18;3.38;;;2.00;;
18610;SDS011;9435;52.122;5.502;2023-02-28T13:54:54;4.28;;;2.20;;
18610;SDS011;9435;52.122;5.502;2023-02-28T13:57:30;3.80;;;1.88;;
18610;SDS011;9435;52.122;5.502;2023-02-28T14:00:17;2.92;;;1.95;;
18610;SDS011;9435;52.122;5.502;2023-02-28T14:02:59;4.97;;;2.10;;
18610;SDS011;9435;52.122;5.502;2023-02-28T14:06:16;5.00;;;2.33;;
18610;SDS011;9435;52.122;5.502;2023-02-28T14:08:52;4.40;;;2.20;;
18610;SDS011;9435;52.122;5.502;2023-02-28T14:11:24;4.75;;;2.30;;
18610;SDS011;9435;52.122;5.502;2023-02-28T14:13:57;4.63;;;2.42;;
18610;SDS011;9435;52.122;5.502;2023-02-28T14:16:34;3.65;;;2.20;;
18610;SDS011;9435;52.122;5.502;2023-02-28T14:19:09;4.43;;;2.50;;
18610;SDS011;9435;52.122;5.502;2023-02-28T14:21:39;4.97;;;2.30;;
18610;SDS011;9435;52.122;5.502;2023-02-28T14:27:29;3.55;;;2.20;;
18610;SDS011;9435;52.122;5.502;2023-02-28T14:36:04;3.45;;;1.95;;
18610;SDS011;9435;52.122;5.502;2023-02-28T14:38:40;4.03;;;2.10;;
18610;SDS011;9435;52.122;5.502;2023-02-28T14:41:14;4.35;;;2.20;;
18610;SDS011;9435;52.122;5.502;2023-02-28T14:43:49;6.10;;;2.25;;
18610;SDS011;9435;52.122;5.502;2023-02-28T14:46:18;4.70;;;2.20;;
18610;SDS011;9435;52.122;5.502;2023-02-28T14:48:49;3.97;;;2.10;;
18610;SDS011;9435;52.122;5.502;2023-02-28T14:51:20;3.83;;;1.98;;
18610;SDS011;9435;52.122;5.502;2023-02-28T14:53:49;3.67;;;2.13;;
18610;SDS011;9435;52.122;5.502;2023-02-28T14:56:23;3.17;;;1.90;;
18610;SDS011;9435;52.122;5.502;2023-02-28T14:58:52;4.72;;;1.98;;
18610;SDS011;9435;52.122;5.502;2023-02-28T15:01:21;3.30;;;1.98;;
18610;SDS011;9435;52.122;5.502;2023-02-28T15:03:58;2.88;;;1.92;;
18610;SDS011;9435;52.122;5.502;2023-02-28T15:06:27;5.00;;;1.98;;
18610;SDS011;9435;52.122;5.502;2023-02-28T15:09:09;4.38;;;2.10;;
18610;SDS011;9435;52.122;5.502;2023-02-28T15:11:39;4.90;;;2.35;;
18610;SDS011;9435;52.122;5.502;2023-02-28T15:14:12;2.83;;;2.10;;
18610;SDS011;9435;52.122;5.502;2023-02-28T15:16:43;3.75;;;2.00;;
18610;SDS011;9435;52.122;5.502;2023-02-28T15:19:14;4.05;;;2.15;;
18610;SDS011;9435;52.122;5.502;2023-02-28T15:21:47;5.22;;;2.10;;
18610;SDS011;9435;52.122;5.502;2023-02-28T15:24:17;5.72;;;2.20;;
18610;SDS011;9435;52.122;5.502;2023-02-28T15:26:50;5.70;;;2.20;;
18610;SDS011;9435;52.122;5.502;2023-02-28T15:29:20;3.95;;;2.17;;
18610;SDS011;9435;52.122;5.502;2023-02-28T15:31:49;4.63;;;1.85;;
18610;SDS011;9435;52.122;5.502;2023-02-28T15:34:20;3.70;;;1.90;;
18610;SDS011;9435;52.122;5.502;2023-02-28T15:36:48;4.07;;;1.95;;
18610;SDS011;9435;52.122;5.502;2023-02-28T15:39:19;2.42;;;1.50;;
18610;SDS011;9435;52.122;5.502;2023-02-28T15:41:47;3.45;;;1.73;;
18610;SDS011;9435;52.122;5.502;2023-02-28T15:44:16;3.42;;;1.70;;
18610;SDS011;9435;52.122;5.502;2023-02-28T15:46:55;3.65;;;2.08;;
18610;SDS011;9435;52.122;5.502;2023-02-28T15:49:28;2.30;;;1.60;;
18610;SDS011;9435;52.122;5.502;2023-02-28T15:51:59;6.20;;;1.90;;
18610;SDS011;9435;52.122;5.502;2023-02-28T15:54:28;3.72;;;1.65;;
18610;SDS011;9435;52.122;5.502;2023-02-28T15:57:00;3.67;;;1.58;;
18610;SDS011;9435;52.122;5.502;2023-02-28T15:59:31;3.08;;;1.60;;
18610;SDS011;9435;52.122;5.502;2023-02-28T16:02:02;2.40;;;1.50;;
18610;SDS011;9435;52.122;5.502;2023-02-28T16:07:32;3.35;;;1.73;;
18610;SDS011;9435;52.122;5.502;2023-02-28T16:10:01;4.38;;;1.85;;